Time;durP1;ratioP1;P1;durP2;ratioP2;P2;SDS_P1;SDS_P2;PMS_P1;PMS_P2;Temp;Humidity;BMP_temperature;BMP_pressure;BME280_temperature;BME280_humidity;BME280_pressure;Samples;Min_cycle;Max_cycle;Signal;HPM_P1;HPM_P2
2022/01/04 00:00:34;;;;;;;1.63;0.90;;;;;;;-145.69;100.00;71221.31;5052452;28;20203;-74
2022/01/04 00:03:00;;;;;;;2.50;0.80;;;;;;;-145.69;100.00;71213.38;5052825;28;20199;-74
2022/01/04 00:05:28;;;;;;;2.83;1.00;;;;;;;-145.69;100.00;71215.34;5053002;28;20261;-74
2022/01/04 00:07:55;;;;;;;2.67;0.90;;;;;;;-145.69;100.00;71213.38;5052712;28;20613;-74
2022/01/04 00:10:23;;;;;;;3.03;1.07;;;;;;;-145.69;100.00;71215.34;5052307;28;20662;-74
2022/01/04 00:15:35;;;;;;;3.30;0.83;;;;;;;-145.69;100.00;71211.38;5052533;28;20277;-74
2022/01/04 00:18:02;;;;;;;1.57;0.80;;;;;;;-145.69;100.00;71217.34;5052403;28;20199;-74
2022/01/04 00:20:30;;;;;;;1.50;0.63;;;;;;;-145.69;100.00;71207.38;5052616;28;20669;-74
2022/01/04 00:22:56;;;;;;;2.40;1.00;;;;;;;-145.69;100.00;71207.38;5052610;28;20203;-74
2022/01/04 00:25:23;;;;;;;2.17;0.97;;;;;;;-145.69;100.00;71203.41;5052770;28;20203;-73
2022/01/04 00:27:49;;;;;;;4.50;1.43;;;;;;;-145.69;100.00;71187.50;5052370;28;20230;-74
2022/01/04 00:30:16;;;;;;;2.03;1.20;;;;;;;-145.69;100.00;71183.50;5052805;28;20203;-74
2022/01/04 00:32:45;;;;;;;4.20;1.30;;;;;;;-145.69;100.00;71195.47;5052635;28;20204;-74
2022/01/04 00:35:11;;;;;;;4.93;1.50;;;;;;;-145.69;100.00;71181.53;5052493;28;20597;-74
2022/01/04 00:37:39;;;;;;;3.90;1.70;;;;;;;-145.69;100.00;71177.53;5052544;28;20563;-74
2022/01/04 00:40:07;;;;;;;2.70;1.20;;;;;;;-145.69;100.00;71159.63;5052274;28;20199;-74
2022/01/04 00:42:33;;;;;;;1.87;1.30;;;;;;;-145.69;100.00;71153.66;5052383;28;20212;-74
2022/01/04 00:45:00;;;;;;;3.20;1.20;;;;;;;-145.69;100.00;71147.69;5052370;28;20196;-74
2022/01/04 00:47:40;;;;;;;1.67;1.17;;;;;;;-145.69;100.00;71125.81;5052309;28;20203;-74
2022/01/04 00:50:06;;;;;;;3.23;1.43;;;;;;;-145.69;100.00;71119.84;5052162;28;20234;-74
2022/01/04 00:52:32;;;;;;;4.23;1.20;;;;;;;-145.69;100.00;71133.78;5052417;28;20314;-73
2022/01/04 00:55:00;;;;;;;4.10;1.30;;;;;;;-145.69;100.00;71127.81;5051957;28;20609;-74
2022/01/04 00:57:27;;;;;;;2.03;1.17;;;;;;;-145.69;100.00;71115.88;5052450;28;20226;-74
2022/01/04 00:59:53;;;;;;;5.03;1.10;;;;;;;-145.69;100.00;71115.88;5050342;28;20204;-74
2022/01/04 01:02:19;;;;;;;1.30;1.00;;;;;;;-145.69;100.00;71097.97;5032121;28;20216;-74
2022/01/04 01:04:46;;;;;;;2.00;1.30;;;;;;;-145.69;100.00;71101.94;5032507;28;20201;-74
2022/01/04 01:07:12;;;;;;;2.80;1.23;;;;;;;-145.69;99.73;71097.97;5032299;28;20211;-74
2022/01/04 01:09:49;;;;;;;1.67;1.30;;;;;;;-145.69;100.00;71101.94;5043077;28;20220;-74
2022/01/04 01:12:17;;;;;;;2.37;1.30;;;;;;;-145.69;100.00;71097.97;5052141;28;20203;-73
2022/01/04 01:14:44;;;;;;;2.73;1.10;;;;;;;-145.69;100.00;71099.94;5052227;28;20604;-74
2022/01/04 01:17:10;;;;;;;2.17;1.10;;;;;;;-145.69;100.00;71095.97;5051911;28;20230;-73
2022/01/04 01:19:37;;;;;;;4.27;1.20;;;;;;;-145.69;99.27;71080.06;5052210;28;20207;-73
2022/01/04 01:22:04;;;;;;;2.00;1.20;;;;;;;-145.69;98.81;71076.06;5051852;28;20200;-74
2022/01/04 01:24:31;;;;;;;2.30;1.10;;;;;;;-145.69;98.74;71062.13;5054425;28;20674;-74
2022/01/04 01:26:57;;;;;;;2.07;1.10;;;;;;;-145.69;98.38;71068.13;5055677;28;20203;-74
2022/01/04 01:29:25;;;;;;;7.27;1.17;;;;;;;-145.69;97.96;71052.19;5055557;28;20228;-73
2022/01/04 01:31:52;;;;;;;1.70;0.97;;;;;;;-145.69;96.87;71036.28;5055036;28;20666;-73
2022/01/04 01:34:18;;;;;;;2.60;0.90;;;;;;;-145.69;96.91;71044.22;5055481;28;20195;-74
2022/01/04 01:36:44;;;;;;;3.47;1.20;;;;;;;-145.69;97.58;71048.22;5055383;28;20206;-73
2022/01/04 01:39:11;;;;;;;1.73;0.90;;;;;;;-145.69;96.30;71044.22;5054908;28;20655;-73
2022/01/04 01:41:37;;;;;;;1.77;0.90;;;;;;;-145.69;96.17;71042.25;5055473;28;20199;-73
2022/01/04 01:44:04;;;;;;;1.00;0.80;;;;;;;-145.69;96.74;71036.28;5055405;28;20207;-74
2022/01/04 01:46:32;;;;;;;1.47;0.80;;;;;;;-145.69;95.80;71040.25;5055273;28;20199;-73
2022/01/04 01:48:59;;;;;;;2.87;0.87;;;;;;;-145.69;93.82;71012.41;5055001;28;20273;-74
2022/01/04 01:51:29;;;;;;;1.43;1.00;;;;;;;-145.69;93.77;70996.47;5054838;28;20263;-73
2022/01/04 01:53:56;;;;;;;1.70;0.93;;;;;;;-145.69;92.42;70970.63;5055252;28;20214;-73
2022/01/04 01:56:22;;;;;;;2.00;0.87;;;;;;;-145.69;92.25;70968.63;5055065;28;20207;-73
2022/01/04 01:58:49;;;;;;;1.87;0.90;;;;;;;-145.69;91.48;70968.63;5055089;28;20199;-73
2022/01/04 02:01:16;;;;;;;1.70;0.90;;;;;;;-145.69;92.41;70974.59;5054800;28;20209;-74
2022/01/04 02:03:45;;;;;;;2.50;0.90;;;;;;;-145.69;92.82;70964.66;5054860;28;20203;-73
2022/01/04 02:06:11;;;;;;;1.67;0.80;;;;;;;-145.69;91.68;70952.72;5054874;28;20203;-73
2022/01/04 02:08:38;;;;;;;0.90;0.70;;;;;;;-145.69;90.30;70948.72;5054674;28;20223;-73
2022/01/04 02:11:05;;;;;;;1.30;0.90;;;;;;;-145.69;90.18;70934.81;5054537;28;20207;-73
2022/01/04 02:13:32;;;;;;;1.63;0.90;;;;;;;-145.69;87.53;70910.94;5054568;28;20570;-73
2022/01/04 02:15:58;;;;;;;0.80;0.80;;;;;;;-145.69;88.24;70906.94;5054586;28;20196;-73
2022/01/04 02:18:25;;;;;;;1.00;0.70;;;;;;;-145.69;89.21;70889.03;5054496;28;20207;-74
2022/01/04 02:20:53;;;;;;;1.50;0.90;;;;;;;-145.69;87.25;70889.03;5054571;28;20234;-73
2022/01/04 02:23:20;;;;;;;0.67;0.63;;;;;;;-145.69;87.26;70881.09;5054630;28;20203;-74
2022/01/04 02:25:47;;;;;;;1.30;0.97;;;;;;;-145.69;87.60;70875.13;5054568;28;20199;-74
2022/01/04 02:28:18;;;;;;;0.97;0.73;;;;;;;-145.69;87.54;70873.13;5054290;28;20203;-74
2022/01/04 02:30:44;;;;;;;0.87;0.87;;;;;;;-145.69;86.53;70861.19;5054394;28;20211;-74
2022/01/04 02:33:11;;;;;;;1.53;1.00;;;;;;;-145.69;86.68;70855.22;5054600;28;20200;-74
2022/01/04 02:35:37;;;;;;;3.13;0.83;;;;;;;-145.69;85.68;70847.25;5054058;28;20662;-74
2022/01/04 02:38:05;;;;;;;1.70;1.00;;;;;;;-145.69;85.00;70841.28;5054144;28;20551;-74
2022/01/04 02:40:32;;;;;;;1.80;0.80;;;;;;;-145.69;86.19;70843.28;5053775;28;20202;-74
2022/01/04 02:42:59;;;;;;;1.93;0.90;;;;;;;-145.69;84.90;70829.34;5053277;28;20250;-74
2022/01/04 02:45:26;;;;;;;1.30;0.97;;;;;;;-145.69;84.92;70831.34;5053926;28;20245;-74
2022/01/04 02:47:52;;;;;;;1.50;0.83;;;;;;;-145.69;84.38;70809.47;5054289;28;20207;-74
2022/01/04 02:50:19;;;;;;;1.50;0.77;;;;;;;-145.69;84.97;70811.44;5054149;28;20234;-74
2022/01/04 02:52:45;;;;;;;1.10;0.80;;;;;;;-145.69;84.69;70813.44;5049228;28;20922;-74
2022/01/04 02:55:16;;;;;;;2.07;1.13;;;;;;;-145.69;84.41;70803.50;5033807;28;20212;-74
2022/01/04 02:57:44;;;;;;;1.77;0.90;;;;;;;-145.69;83.94;70799.50;5036329;28;20208;-74
2022/01/04 03:00:13;;;;;;;1.83;1.00;;;;;;;-145.69;82.82;70791.56;5033811;28;20207;-73
2022/01/04 03:02:40;;;;;;;0.83;0.70;;;;;;;-145.69;81.03;70761.72;5033942;28;20219;-73
2022/01/04 03:05:07;;;;;;;1.57;1.03;;;;;;;-145.69;82.14;70761.72;5034044;28;20255;-74
2022/01/04 03:07:34;;;;;;;1.77;0.80;;;;;;;-145.69;83.03;70769.66;5033868;28;20200;-74
2022/01/04 03:10:00;;;;;;;2.50;0.90;;;;;;;-145.69;82.55;70757.72;5052843;28;20254;-74
2022/01/04 03:12:28;;;;;;;2.80;1.00;;;;;;;-145.69;81.11;70731.88;5053173;28;20245;-72
2022/01/04 03:14:55;;;;;;;2.00;1.00;;;;;;;-145.69;80.71;70723.91;5053672;28;20227;-73
2022/01/04 03:17:21;;;;;;;1.40;0.90;;;;;;;-145.69;80.25;70721.91;5053534;28;20199;-73
2022/01/04 03:19:48;;;;;;;1.30;0.70;;;;;;;-145.69;81.35;70727.88;5053240;28;20203;-74
2022/01/04 03:22:14;;;;;;;2.20;0.97;;;;;;;-145.69;80.25;70713.97;5053545;28;20214;-73
2022/01/04 03:24:41;;;;;;;1.63;1.10;;;;;;;-145.69;82.41;70721.91;5053425;28;20210;-74
2022/01/04 03:27:07;;;;;;;1.17;0.90;;;;;;;-145.69;83.48;70717.94;5053328;28;20643;-74
2022/01/04 03:29:35;;;;;;;1.13;0.70;;;;;;;-145.69;84.49;70733.84;5053006;28;20705;-74
2022/01/04 03:32:02;;;;;;;1.13;0.70;;;;;;;-145.69;84.32;70739.81;5053359;28;20252;-74
2022/01/04 03:34:28;;;;;;;2.33;0.67;;;;;;;-145.69;84.45;70725.91;5053318;28;20354;-73
2022/01/04 03:36:55;;;;;;;1.10;0.70;;;;;;;-145.69;85.43;70739.81;5052994;28;20203;-74
2022/01/04 03:39:21;;;;;;;1.27;0.80;;;;;;;-145.69;84.88;70709.97;5052818;28;20203;-73
2022/01/04 03:41:48;;;;;;;0.63;0.60;;;;;;;-145.69;84.63;70713.97;5052879;28;20211;-73
2022/01/04 03:44:18;;;;;;;1.23;0.60;;;;;;;-145.69;84.68;70702.03;5053224;28;20199;-74
2022/01/04 03:46:47;;;;;;;2.10;0.83;;;;;;;-145.69;84.09;70698.03;5052226;28;20206;-74
2022/01/04 03:49:13;;;;;;;0.73;0.73;;;;;;;-145.69;84.51;70694.06;5052984;28;20231;-74
2022/01/04 03:51:40;;;;;;;4.73;1.43;;;;;;;-145.69;84.45;70686.09;5053079;28;20234;-74
2022/01/04 03:54:06;;;;;;;2.20;0.60;;;;;;;-145.69;83.65;70678.16;5052908;28;20206;-74
2022/01/04 03:56:33;;;;;;;0.83;0.60;;;;;;;-145.69;85.29;70672.19;5052918;28;20203;-74
2022/01/04 03:58:59;;;;;;;0.90;0.70;;;;;;;-145.69;87.65;70698.03;5053008;28;20269;-74
2022/01/04 04:01:26;;;;;;;1.03;0.60;;;;;;;-145.69;88.04;70709.97;5053060;28;20203;-74
2022/01/04 04:03:54;;;;;;;3.30;1.00;;;;;;;-145.69;90.15;70717.94;5052574;28;20302;-74
2022/01/04 04:06:21;;;;;;;1.60;0.70;;;;;;;-145.69;91.74;70725.91;5052845;28;20203;-74
2022/01/04 04:08:48;;;;;;;0.70;0.63;;;;;;;-145.69;93.21;70739.81;5052156;28;20210;-74
2022/01/04 04:11:15;;;;;;;0.93;0.70;;;;;;;-145.69;95.09;70761.72;5052742;28;20658;-74
2022/01/04 04:13:41;;;;;;;1.63;0.80;;;;;;;-145.69;96.53;70749.78;5052319;28;20678;-74
2022/01/04 04:16:08;;;;;;;2.20;1.00;;;;;;;-145.69;98.72;70765.69;5052797;28;20199;-74
2022/01/04 04:18:35;;;;;;;1.37;0.90;;;;;;;-145.69;100.00;70783.59;5052708;28;20226;-74
2022/01/04 04:21:02;;;;;;;1.43;0.83;;;;;;;-145.69;100.00;70783.59;5052624;28;20203;-75
2022/01/04 04:23:29;;;;;;;1.00;0.70;;;;;;;-145.69;100.00;70783.59;5052847;28;20199;-74
2022/01/04 04:25:55;;;;;;;1.23;0.77;;;;;;;-145.69;100.00;70789.56;5052464;28;20210;-74
2022/01/04 04:28:22;;;;;;;3.53;0.70;;;;;;;-145.69;100.00;70801.50;5052673;28;20203;-74
2022/01/04 04:30:48;;;;;;;2.27;0.80;;;;;;;-145.69;100.00;70799.50;5052474;28;20349;-74
2022/01/04 04:33:14;;;;;;;4.43;1.00;;;;;;;-145.69;100.00;70809.47;5052578;28;20207;-74
2022/01/04 04:35:41;;;;;;;1.43;0.90;;;;;;;-145.69;100.00;70817.41;5052465;28;20233;-74
2022/01/04 04:38:09;;;;;;;1.20;0.80;;;;;;;-145.69;100.00;70821.41;5052095;28;20199;-74
2022/01/04 04:40:35;;;;;;;4.17;0.73;;;;;;;-145.69;100.00;70837.31;5051850;28;20662;-75
2022/01/04 04:43:02;;;;;;;2.20;0.90;;;;;;;-145.69;100.00;70833.34;5052661;28;20562;-75
2022/01/04 04:45:28;;;;;;;2.07;0.80;;;;;;;-145.69;100.00;70835.31;5052320;28;20731;-75
2022/01/04 04:47:55;;;;;;;1.10;1.00;;;;;;;-145.69;100.00;70837.31;5052053;28;20210;-74
2022/01/04 04:50:21;;;;;;;3.00;0.73;;;;;;;-145.69;100.00;70829.34;5052223;28;20235;-74
2022/01/04 04:52:48;;;;;;;1.40;0.87;;;;;;;-145.69;100.00;70821.41;5052123;28;20228;-75
2022/01/04 04:55:16;;;;;;;1.40;0.70;;;;;;;-145.69;100.00;70815.44;5052576;28;20200;-74
2022/01/04 04:57:42;;;;;;;3.00;0.70;;;;;;;-145.69;100.00;70821.41;5053271;28;20222;-74
2022/01/04 05:00:10;;;;;;;2.63;1.10;;;;;;;-145.69;100.00;70819.41;5038456;28;20204;-74
2022/01/04 05:02:37;;;;;;;1.90;0.80;;;;;;;-145.69;100.00;70813.44;5035983;28;20235;-75
2022/01/04 05:05:04;;;;;;;2.27;0.60;;;;;;;-145.69;100.00;70815.44;5036120;28;20204;-74
2022/01/04 05:07:31;;;;;;;1.10;0.73;;;;;;;-145.69;100.00;70809.47;5038219;28;20208;-74
2022/01/04 05:09:57;;;;;;;1.03;0.60;;;;;;;-145.69;100.00;70799.50;5056108;28;20235;-74
2022/01/04 05:12:25;;;;;;;2.60;0.90;;;;;;;-145.69;100.00;70803.50;5055949;28;20204;-74
2022/01/04 05:14:51;;;;;;;0.70;0.60;;;;;;;-145.69;100.00;70803.50;5055239;28;20650;-74
2022/01/04 05:17:18;;;;;;;2.27;0.80;;;;;;;-145.69;100.00;70807.47;5055749;28;20257;-74
2022/01/04 05:19:45;;;;;;;0.60;0.53;;;;;;;-145.69;100.00;70793.53;5055967;28;20195;-74
2022/01/04 05:22:11;;;;;;;1.70;0.50;;;;;;;-145.69;100.00;70795.53;5055849;28;20566;-74
2022/01/04 05:24:37;;;;;;;1.27;0.70;;;;;;;-145.69;100.00;70807.47;5055867;28;20206;-74
2022/01/04 05:27:05;;;;;;;0.80;0.60;;;;;;;-145.69;100.00;70809.47;5055570;28;20203;-74
2022/01/04 05:29:33;;;;;;;1.07;0.70;;;;;;;-145.69;100.00;70813.44;5055284;28;20580;-74
2022/01/04 05:31:59;;;;;;;1.60;1.00;;;;;;;-145.69;100.00;70793.53;5055512;28;20199;-74
2022/01/04 05:34:26;;;;;;;1.57;0.80;;;;;;;-145.69;100.00;70779.63;5055747;28;20207;-74
2022/01/04 05:36:53;;;;;;;2.47;1.00;;;;;;;-145.69;100.00;70777.63;5055405;28;20203;-74
2022/01/04 05:39:19;;;;;;;1.60;0.90;;;;;;;-145.69;100.00;70765.69;5055247;28;20200;-74
2022/01/04 05:41:46;;;;;;;2.23;0.97;;;;;;;-145.69;100.00;70763.69;5055020;28;20232;-74
2022/01/04 05:44:12;;;;;;;1.83;0.70;;;;;;;-145.69;100.00;70765.69;5055298;28;20237;-74
2022/01/04 05:46:40;;;;;;;0.80;0.67;;;;;;;-145.69;100.00;70765.69;5055006;28;20203;-74
2022/01/04 05:49:06;;;;;;;0.60;0.60;;;;;;;-145.69;100.00;70745.78;5055264;28;20208;-74
2022/01/04 05:51:33;;;;;;;0.83;0.60;;;;;;;-145.69;100.00;70759.72;5054957;28;20760;-74
2022/01/04 05:53:59;;;;;;;1.70;0.60;;;;;;;-145.69;100.00;70753.75;5055286;28;20253;-74
2022/01/04 05:56:26;;;;;;;0.60;0.57;;;;;;;-145.69;100.00;70757.72;5055239;28;20204;-74
2022/01/04 05:58:52;;;;;;;0.73;0.70;;;;;;;-145.69;100.00;70749.78;5054955;28;20590;-73
2022/01/04 06:01:19;;;;;;;1.37;1.00;;;;;;;-145.69;100.00;70729.88;5054576;28;20257;-74
2022/01/04 06:03:46;;;;;;;2.00;0.87;;;;;;;-145.69;100.00;70727.88;5055175;28;20214;-74
2022/01/04 06:06:13;;;;;;;1.40;0.70;;;;;;;-145.69;100.00;70702.03;5054779;28;20245;-74
2022/01/04 06:08:40;;;;;;;1.10;0.70;;;;;;;-145.69;100.00;70688.09;5054269;28;20203;-74
2022/01/04 06:11:08;;;;;;;3.73;0.60;;;;;;;-145.69;100.00;70696.06;5054620;28;20227;-74
2022/01/04 06:16:19;;;;;;;0.40;0.40;;;;;;;-145.69;100.00;70682.13;5054723;28;20241;-73
2022/01/04 06:18:47;;;;;;;0.70;0.70;;;;;;;-145.69;100.00;70682.13;5054863;28;20203;-74
2022/01/04 06:21:13;;;;;;;0.77;0.57;;;;;;;-145.69;100.00;70666.22;5054636;28;20589;-74
2022/01/04 06:23:39;;;;;;;1.10;0.60;;;;;;;-145.69;100.00;70658.25;5054582;28;20203;-73
2022/01/04 06:26:06;;;;;;;0.53;0.40;;;;;;;-145.69;100.00;70660.25;5054260;28;20210;-73
2022/01/04 06:28:33;;;;;;;0.70;0.50;;;;;;;-145.69;100.00;70646.31;5054472;28;20265;-73
2022/01/04 06:30:59;;;;;;;1.37;0.50;;;;;;;-145.69;100.00;70646.31;5054337;28;20231;-73
2022/01/04 06:33:26;;;;;;;0.67;0.60;;;;;;;-145.69;100.00;70638.34;5054204;28;20212;-74
2022/01/04 06:35:54;;;;;;;1.40;0.50;;;;;;;-145.69;100.00;70638.34;5054421;28;20287;-74
2022/01/04 06:38:20;;;;;;;0.50;0.50;;;;;;;-145.69;100.00;70614.47;5053915;28;20196;-73
2022/01/04 06:40:47;;;;;;;0.70;0.50;;;;;;;-145.69;100.00;70616.47;5053680;28;20207;-73
2022/01/04 06:43:13;;;;;;;1.30;0.60;;;;;;;-145.69;100.00;70618.47;5054225;28;20195;-74
2022/01/04 06:45:39;;;;;;;0.40;0.40;;;;;;;-145.69;100.00;70614.47;5054360;28;20276;-74
2022/01/04 06:48:06;;;;;;;0.43;0.43;;;;;;;-145.69;100.00;70602.56;5054130;28;20650;-74
2022/01/04 06:50:33;;;;;;;0.50;0.50;;;;;;;-145.69;100.00;70604.53;5053860;28;20617;-74
2022/01/04 06:53:00;;;;;;;0.77;0.60;;;;;;;-145.69;100.00;70614.47;5053868;28;20230;-73
2022/01/04 06:55:27;;;;;;;0.73;0.60;;;;;;;-145.69;100.00;70580.66;5053992;28;20605;-73
2022/01/04 06:57:53;;;;;;;0.70;0.70;;;;;;;-145.69;100.00;70574.69;5041595;28;20227;-74
2022/01/04 07:00:20;;;;;;;1.70;0.60;;;;;;;-145.69;100.00;70578.69;5033743;28;20548;-74
2022/01/04 07:02:46;;;;;;;0.97;0.63;;;;;;;-145.69;100.00;70572.72;5034064;28;20200;-74
2022/01/04 07:05:12;;;;;;;0.60;0.60;;;;;;;-145.69;100.00;70574.69;5033875;28;20594;-73
2022/01/04 07:07:39;;;;;;;1.07;0.67;;;;;;;-145.69;100.00;70562.75;5038456;28;20192;-73
2022/01/04 07:10:08;;;;;;;1.40;0.53;;;;;;;-145.69;100.00;70558.78;5053631;28;21334;-74
2022/01/04 07:12:34;;;;;;;0.70;0.50;;;;;;;-145.69;100.00;70556.78;5053862;28;20199;-74
2022/01/04 07:15:01;;;;;;;0.50;0.50;;;;;;;-145.69;100.00;70538.88;5053501;28;20257;-74
2022/01/04 07:17:27;;;;;;;1.50;0.63;;;;;;;-145.69;100.00;70522.97;5053716;28;20203;-74
2022/01/04 07:19:54;;;;;;;0.87;0.77;;;;;;;-145.69;100.00;70513.03;5053540;28;20234;-73
2022/01/04 07:22:20;;;;;;;2.13;0.80;;;;;;;-145.69;100.00;70509.03;5052460;28;20199;-74
2022/01/04 07:24:46;;;;;;;1.27;0.80;;;;;;;-145.69;100.00;70507.06;5053710;28;20202;-74
2022/01/04 07:27:14;;;;;;;2.03;0.80;;;;;;;-145.69;100.00;70503.06;5053475;28;20203;-73
2022/01/04 07:29:41;;;;;;;9.40;3.90;;;;;;;-145.69;100.00;70511.03;5053324;28;20206;-73
2022/01/04 07:32:07;;;;;;;32.00;9.77;;;;;;;-145.69;100.00;70487.16;5053284;28;20280;-73
2022/01/04 07:34:34;;;;;;;1.60;1.10;;;;;;;-145.69;100.00;70491.13;5053084;28;20215;-74
2022/01/04 07:37:01;;;;;;;0.93;0.70;;;;;;;-145.69;100.00;70487.16;5052800;28;20199;-73
2022/01/04 07:39:28;;;;;;;0.93;0.53;;;;;;;-145.69;100.00;70487.16;5053248;28;20290;-74
2022/01/04 07:41:57;;;;;;;2.10;0.60;;;;;;;-145.69;100.00;70445.38;5053285;28;20207;-73
2022/01/04 07:44:25;;;;;;;0.57;0.53;;;;;;;-145.69;100.00;70435.44;5052852;28;20294;-73
2022/01/04 07:46:52;;;;;;;1.43;0.80;;;;;;;-145.69;100.00;70417.53;5053094;28;20536;-73
2022/01/04 07:49:18;;;;;;;4.87;0.80;;;;;;;-145.69;100.00;70413.56;5053174;28;20230;-74
2022/01/04 07:51:45;;;;;;;1.60;0.70;;;;;;;-145.69;100.00;70407.59;5052827;28;20252;-74
2022/01/04 07:54:11;;;;;;;1.73;0.73;;;;;;;-145.69;100.00;70403.59;5053135;28;20207;-74
2022/01/04 07:56:38;;;;;;;1.13;0.80;;;;;;;-145.69;100.00;70405.59;5053165;28;20558;-74
2022/01/04 07:59:05;;;;;;;1.23;1.03;;;;;;;-145.69;100.00;70417.53;5053058;28;20203;-74
2022/01/04 08:01:33;;;;;;;3.33;0.90;;;;;;;-145.69;100.00;70397.63;5052835;28;20204;-74
2022/01/04 08:04:00;;;;;;;2.80;0.80;;;;;;;-145.69;100.00;70399.63;5052793;28;20257;-75
2022/01/04 08:06:26;;;;;;;1.53;0.67;;;;;;;-145.69;100.00;70403.59;5053029;28;20241;-74
2022/01/04 08:08:53;;;;;;;1.33;0.83;;;;;;;-145.69;100.00;70405.59;5052513;28;20253;-74
2022/01/04 08:11:20;;;;;;;1.17;0.80;;;;;;;-145.69;100.00;70415.53;5052654;28;20230;-74
2022/01/04 08:13:47;;;;;;;5.07;0.90;;;;;;;-145.69;100.00;70407.59;5052805;28;20227;-75
2022/01/04 08:16:15;;;;;;;1.40;1.00;;;;;;;-145.69;100.00;70427.47;5052845;28;20206;-74
2022/01/04 08:18:42;;;;;;;1.60;0.70;;;;;;;-145.69;100.00;70419.53;5052609;28;20709;-74
2022/01/04 08:21:09;;;;;;;2.07;0.60;;;;;;;-145.69;100.00;70439.41;5052560;28;20206;-74
2022/01/04 08:23:36;;;;;;;2.43;0.83;;;;;;;-145.69;100.00;70435.44;5052809;28;20199;-74
2022/01/04 08:26:02;;;;;;;1.90;1.10;;;;;;;-145.69;100.00;70459.31;5052858;28;20199;-75
2022/01/04 08:28:29;;;;;;;1.00;0.90;;;;;;;-145.69;100.00;70453.34;5052766;28;20253;-74
2022/01/04 08:30:55;;;;;;;1.63;1.00;;;;;;;-145.69;100.00;70463.28;5052140;28;20223;-74
2022/01/04 08:33:22;;;;;;;2.53;1.30;;;;;;;-145.69;100.00;70461.31;5055073;28;20229;-74
2022/01/04 08:35:50;;;;;;;2.30;0.80;;;;;;;-145.69;100.00;70467.28;5056879;28;20231;-74
2022/01/04 08:38:16;;;;;;;4.27;0.73;;;;;;;-145.69;100.00;70469.25;5056499;28;20202;-73
2022/01/04 08:40:42;;;;;;;1.87;1.00;;;;;;;-145.69;100.00;70455.34;5056650;28;20200;-74
2022/01/04 08:43:09;;;;;;;3.53;1.20;;;;;;;-145.69;100.00;70473.22;5056492;28;20199;-74
2022/01/04 08:45:36;;;;;;;1.90;1.27;;;;;;;-145.69;100.00;70473.22;5056485;28;20202;-72
2022/01/04 08:48:04;;;;;;;4.87;2.00;;;;;;;-145.69;100.00;70475.22;5056015;28;20206;-73
2022/01/04 08:50:30;;;;;;;4.23;1.23;;;;;;;-145.69;100.00;70483.19;5042541;28;20730;-73
2022/01/04 08:52:58;;;;;;;1.40;0.90;;;;;;;-145.69;100.00;70481.19;5036081;28;20286;-73
2022/01/04 08:55:25;;;;;;;5.70;1.90;;;;;;;-145.69;100.00;70509.03;5056114;28;20192;-73
2022/01/04 08:57:52;;;;;;;3.60;1.10;;;;;;;-145.69;100.00;70495.13;5055864;28;20199;-74
2022/01/04 09:00:19;;;;;;;2.37;1.43;;;;;;;-145.69;100.00;70499.09;5056047;28;20196;-74
2022/01/04 09:02:45;;;;;;;2.13;1.03;;;;;;;-145.69;100.00;70491.13;5056088;28;20191;-74
2022/01/04 09:05:12;;;;;;;4.53;1.20;;;;;;;-145.69;100.00;70489.16;5056252;28;20207;-73
2022/01/04 09:07:39;;;;;;;2.13;1.20;;;;;;;-145.69;100.00;70483.19;5055793;28;20195;-73
2022/01/04 09:10:07;;;;;;;3.87;1.50;;;;;;;-145.69;100.00;70479.19;5056141;28;20245;-73
2022/01/04 09:12:44;;;;;;;2.90;1.67;;;;;;;-145.69;100.00;70489.16;5055191;28;20464;-73
2022/01/04 09:15:46;;;;;;;1.50;1.00;;;;;;;-145.69;100.00;70481.19;5055626;28;20210;-73
2022/01/04 09:20:58;;;;;;;1.80;1.20;;;;;;;-145.69;100.00;70489.16;5055749;28;20207;-73
2022/01/04 09:23:24;;;;;;;3.43;1.80;;;;;;;-145.69;100.00;70479.19;5055060;28;20255;-73
2022/01/04 09:25:54;;;;;;;1.97;1.27;;;;;;;-145.69;100.00;70469.25;5055774;28;20207;-73
2022/01/04 09:28:22;;;;;;;3.53;0.90;;;;;;;-145.69;100.00;70469.25;5055024;28;20200;-73
2022/01/04 09:30:50;;;;;;;1.30;1.10;;;;;;;-145.69;100.00;70467.28;5055530;28;20281;-73
2022/01/04 09:33:17;;;;;;;2.43;1.03;;;;;;;-145.69;100.00;70467.28;5057641;28;20203;-74
2022/01/04 09:35:44;;;;;;;1.63;1.17;;;;;;;-145.69;100.00;70455.34;5063464;28;20207;-74
2022/01/04 09:38:11;;;;;;;2.70;1.30;;;;;;;-145.69;100.00;70433.44;5055717;28;20605;-74
2022/01/04 09:40:39;;;;;;;1.70;1.00;;;;;;;-145.69;100.00;70437.44;5055404;28;20199;-73
2022/01/04 09:43:08;;;;;;;1.83;1.03;;;;;;;-145.69;100.00;70441.41;5055369;28;20195;-73
2022/01/04 09:45:35;;;;;;;1.90;1.10;;;;;;;-145.69;100.00;70439.41;5054327;28;20658;-73
2022/01/04 09:48:02;;;;;;;1.50;1.03;;;;;;;-145.69;100.00;70429.47;5055217;28;20202;-73
2022/01/04 09:50:28;;;;;;;1.63;1.20;;;;;;;-145.69;100.00;70403.59;5054954;28;20558;-73
2022/01/04 09:52:57;;;;;;;1.37;0.93;;;;;;;-145.69;100.00;70393.66;5054907;28;20241;-73
2022/01/04 09:55:23;;;;;;;4.80;1.17;;;;;;;-145.69;100.00;70375.75;5055251;28;20294;-73
2022/01/04 09:57:50;;;;;;;3.07;1.00;;;;;;;-145.69;100.00;70367.81;5055134;28;20214;-73
2022/01/04 10:00:19;;;;;;;1.37;0.83;;;;;;;-145.69;100.00;70345.91;5055037;28;20673;-73
2022/01/04 10:02:49;;;;;;;4.07;1.40;;;;;;;-145.69;100.00;70345.91;5054694;28;20207;-74
2022/01/04 10:05:17;;;;;;;2.93;1.20;;;;;;;-145.69;100.00;70341.94;5055017;28;20288;-75
2022/01/04 10:07:45;;;;;;;5.37;1.57;;;;;;;-145.69;100.00;70316.06;5041356;28;20254;-73
2022/01/04 10:10:13;;;;;;;2.23;1.20;;;;;;;-145.69;100.00;70324.03;5040760;28;20211;-75
2022/01/04 10:12:51;;;;;;;1.35;0.82;;;;;;;-145.69;100.00;70310.09;5054598;28;20223;-73
2022/01/04 10:15:38;;;;;;;2.90;1.20;;;;;;;-145.69;100.00;70328.00;5054668;28;20213;-73
2022/01/04 10:18:21;;;;;;;1.23;0.90;;;;;;;-145.69;100.00;70335.97;5054866;28;20210;-72
2022/01/04 10:20:52;;;;;;;3.17;1.20;;;;;;;-145.69;100.00;70363.81;5054697;28;20234;-74
2022/01/04 10:23:21;;;;;;;4.63;1.17;;;;;;;-145.69;100.00;70339.94;5054704;28;20199;-74
2022/01/04 10:25:49;;;;;;;3.57;1.30;;;;;;;-145.69;100.00;70355.88;5054414;28;20203;-74
2022/01/04 10:28:28;;;;;;;2.93;1.20;;;;;;;-145.69;100.00;70355.88;5054349;28;20226;-74
2022/01/04 10:31:00;;;;;;;3.37;1.40;;;;;;;-145.69;100.00;70353.88;5054275;28;20209;-74
2022/01/04 10:33:27;;;;;;;2.50;1.20;;;;;;;-145.69;100.00;70337.97;5054462;28;20262;-74
2022/01/04 10:35:56;;;;;;;6.77;1.70;;;;;;;-145.69;100.00;70335.97;5054408;28;20227;-74
2022/01/04 10:38:26;;;;;;;3.97;1.50;;;;;;;-145.69;100.00;70314.09;5054327;28;20207;-74
2022/01/04 10:40:59;;;;;;;4.57;1.60;;;;;;;-145.69;100.00;70312.09;5054121;28;20558;-74
2022/01/04 10:43:28;;;;;;;3.13;1.17;;;;;;;-145.69;100.00;70298.16;5053822;28;20290;-74
2022/01/04 10:45:57;;;;;;;3.90;1.43;;;;;;;-145.69;100.00;70284.25;5043697;28;20278;-74
2022/01/04 10:48:25;;;;;;;3.40;2.23;;;;;;;-145.69;100.00;70276.28;5053884;28;20203;-73
2022/01/04 10:50:53;;;;;;;4.37;1.90;;;;;;;-145.69;100.00;70268.34;5053826;28;20245;-74
2022/01/04 10:53:24;;;;;;;6.00;3.40;;;;;;;-145.69;100.00;70260.38;5054150;28;20609;-74
2022/01/04 10:55:55;;;;;;;4.17;2.00;;;;;;;-145.69;100.00;70246.44;5054018;28;20226;-74
2022/01/04 10:58:26;;;;;;;3.57;1.47;;;;;;;-145.69;100.00;70218.59;5053833;28;20199;-74
2022/01/04 11:00:58;;;;;;;2.43;1.60;;;;;;;-145.69;100.00;70214.63;5053559;28;20200;-74
2022/01/04 11:03:30;;;;;;;3.13;1.37;;;;;;;-145.69;100.00;70186.78;5053758;28;20673;-74
2022/01/04 11:05:59;;;;;;;4.33;1.30;;;;;;;-145.69;100.00;70186.78;5053188;28;20203;-74
2022/01/04 11:08:26;;;;;;;1.37;1.17;;;;;;;-145.69;100.00;70174.84;5053287;28;20585;-74
2022/01/04 11:10:55;;;;;;;1.37;1.00;;;;;;;-145.69;100.00;70176.81;5053823;28;20242;-74
2022/01/04 11:13:21;;;;;;;2.07;1.10;;;;;;;-145.69;100.00;70184.78;5053405;28;20227;-75
2022/01/04 11:15:48;;;;;;;1.80;1.20;;;;;;;-145.69;100.00;70182.78;5053512;28;20200;-74
2022/01/04 11:18:15;;;;;;;3.83;1.60;;;;;;;-145.69;100.00;70200.69;5053626;28;20195;-74
2022/01/04 11:20:43;;;;;;;2.00;1.10;;;;;;;-145.69;100.00;70206.66;5053327;28;20666;-74